createdAt,value
2023-03-18T00:04:47.682Z,9.20
2023-03-18T00:10:50.965Z,6.47
2023-03-18T00:16:52.712Z,6.95
2023-03-18T00:22:55.634Z,5.28
2023-03-18T00:28:58.535Z,6.72
2023-03-18T00:35:01.531Z,5.80
2023-03-18T00:41:12.664Z,6.10
2023-03-18T00:47:14.407Z,4.35
2023-03-18T00:53:16.957Z,8.43
2023-03-18T00:59:21.778Z,5.60
2023-03-18T01:05:25.391Z,8.90
2023-03-18T01:11:29.146Z,7.70
2023-03-18T01:17:31.925Z,8.20
2023-03-18T01:23:34.320Z,8.32
2023-03-18T01:29:36.252Z,9.25
2023-03-18T01:35:41.212Z,6.22
2023-03-18T01:41:45.097Z,6.30
2023-03-18T01:53:57.690Z,8.50
2023-03-18T02:00:01.671Z,9.15
2023-03-18T02:06:05.034Z,5.90
2023-03-18T02:12:12.673Z,10.10
2023-03-18T02:24:34.512Z,6.67
2023-03-18T02:30:47.665Z,7.57
2023-03-18T02:36:51.010Z,6.90
2023-03-18T02:42:52.907Z,7.22
2023-03-18T02:48:56.059Z,7.97
2023-03-18T02:54:59.289Z,6.43
2023-03-18T03:01:04.631Z,9.32
2023-03-18T03:07:06.809Z,9.65
2023-03-18T03:13:22.193Z,10.73
2023-03-18T03:19:24.967Z,10.63
2023-03-18T03:25:27.494Z,11.02
2023-03-18T03:31:29.400Z,5.70
2023-03-18T03:37:32.278Z,8.93
2023-03-18T03:43:34.059Z,9.10
2023-03-18T03:49:35.952Z,6.75
2023-03-18T03:55:38.011Z,9.05
2023-03-18T04:01:40.699Z,10.82
2023-03-18T04:07:44.224Z,8.05
2023-03-18T04:13:47.467Z,10.23
2023-03-18T04:19:50.556Z,8.13
2023-03-18T04:25:53.712Z,12.73
2023-03-18T04:31:56.981Z,12.68
2023-03-18T04:38:00.913Z,12.93
2023-03-18T04:44:04.476Z,8.82
2023-03-18T04:50:15.429Z,8.98
2023-03-18T04:56:18.177Z,10.30
2023-03-18T05:02:25.388Z,10.18
2023-03-18T05:08:28.077Z,8.48
2023-03-18T05:14:32.435Z,7.93
2023-03-18T05:20:36.471Z,10.82
2023-03-18T05:26:40.193Z,8.95
2023-03-18T05:32:44.221Z,9.82
2023-03-18T05:38:50.621Z,14.60
2023-03-18T05:44:53.212Z,9.98
2023-03-18T05:50:58.875Z,9.95
2023-03-18T05:57:04.737Z,11.73
2023-03-18T06:03:07.791Z,8.00
2023-03-18T06:09:12.316Z,11.35
2023-03-18T06:15:17.774Z,5.83
2023-03-18T06:21:21.399Z,10.07
2023-03-18T06:27:24.369Z,9.93
2023-03-18T06:33:31.473Z,10.17
2023-03-18T06:39:34.930Z,7.85
2023-03-18T06:45:40.897Z,8.97
2023-03-18T06:51:44.726Z,11.73
2023-03-18T06:57:48.374Z,8.68
2023-03-18T07:03:55.125Z,9.00
2023-03-18T07:09:57.450Z,6.15
2023-03-18T07:16:00.709Z,8.98
2023-03-18T07:22:03.691Z,6.68
2023-03-18T07:28:08.506Z,10.07
2023-03-18T07:34:11.709Z,7.68
2023-03-18T07:40:14.960Z,8.13
2023-03-18T07:46:17.412Z,7.15
2023-03-18T07:52:20.445Z,6.50
2023-03-18T07:58:23.044Z,8.02
2023-03-18T08:04:25.662Z,6.63
2023-03-18T08:10:31.641Z,10.55
2023-03-18T08:16:33.863Z,8.23
2023-03-18T08:22:37.139Z,10.70
2023-03-18T08:28:39.959Z,9.27
2023-03-18T08:34:42.959Z,9.82
2023-03-18T08:40:46.932Z,11.63
2023-03-18T08:46:49.817Z,9.32
2023-03-18T08:52:52.400Z,8.55
2023-03-18T08:58:55.103Z,9.85
2023-03-18T09:04:57.697Z,7.30
2023-03-18T09:11:00.445Z,8.65
2023-03-18T09:17:02.896Z,9.90
2023-03-18T09:23:05.283Z,6.57
2023-03-18T09:29:07.731Z,7.53
2023-03-18T09:35:13.416Z,9.98
2023-03-18T09:41:45.918Z,8.07
2023-03-18T09:48:22.658Z,8.73
2023-03-18T09:54:34.200Z,6.63
2023-03-18T10:00:38.597Z,8.35
2023-03-18T10:06:44.289Z,7.95
2023-03-18T10:12:55.649Z,5.90
2023-03-18T10:18:58.199Z,7.55
2023-03-18T10:25:27.679Z,5.07
2023-03-18T10:32:02.760Z,5.07
2023-03-18T10:38:29.768Z,6.20
2023-03-18T10:44:41.414Z,8.38
2023-03-18T10:50:57.718Z,4.00
2023-03-18T10:57:01.572Z,4.97
2023-03-18T11:03:09.048Z,5.40
2023-03-18T11:09:16.659Z,7.85
2023-03-18T11:15:23.169Z,5.22
2023-03-18T11:21:26.958Z,6.88
2023-03-18T11:27:35.934Z,9.43
2023-03-18T11:33:39.134Z,5.20
2023-03-18T11:39:42.136Z,3.10
2023-03-18T11:45:50.167Z,5.70
2023-03-18T11:58:41.024Z,4.00
2023-03-18T12:04:52.414Z,2.53
2023-03-18T12:11:06.491Z,3.97
2023-03-18T12:17:36.138Z,3.13
2023-03-18T12:23:59.409Z,3.90
2023-03-18T12:30:15.322Z,4.25
2023-03-18T12:36:30.136Z,4.47
2023-03-18T12:42:54.560Z,4.38
2023-03-18T12:49:11.695Z,5.75
2023-03-18T12:55:29.232Z,5.70
2023-03-18T13:01:36.959Z,4.45
2023-03-18T13:13:54.420Z,3.22
2023-03-18T13:20:01.956Z,3.08
2023-03-18T13:26:09.976Z,5.32
2023-03-18T13:32:48.309Z,4.22
2023-03-18T13:39:10.098Z,5.70
2023-03-18T13:45:28.525Z,2.13
2023-03-18T13:51:30.322Z,6.10
2023-03-18T13:57:46.824Z,1.92
2023-03-18T14:03:48.769Z,3.72
2023-03-18T14:10:18.225Z,3.90
2023-03-18T14:16:37.645Z,3.47
2023-03-18T14:22:39.790Z,4.10
2023-03-18T14:28:48.066Z,2.22
2023-03-18T14:34:59.022Z,3.42
2023-03-18T14:41:03.304Z,3.03
2023-03-18T14:47:20.628Z,2.70
2023-03-18T14:53:34.753Z,8.13
2023-03-18T14:59:36.570Z,3.42
2023-03-18T15:05:42.372Z,4.88
2023-03-18T15:11:46.676Z,4.45
2023-03-18T15:17:49.319Z,6.80
2023-03-18T15:23:53.951Z,5.07
2023-03-18T15:30:01.612Z,7.85
2023-03-18T15:36:14.969Z,4.38
2023-03-18T15:42:21.552Z,5.90
2023-03-18T15:48:42.186Z,5.30
2023-03-18T15:54:47.800Z,5.40
2023-03-18T16:00:50.682Z,3.58
2023-03-18T16:06:53.675Z,4.18
2023-03-18T16:13:01.001Z,3.97
2023-03-18T16:19:02.770Z,7.15
2023-03-18T16:25:05.015Z,6.20
2023-03-18T16:31:07.058Z,3.38
2023-03-18T16:37:26.954Z,4.82
2023-03-18T16:43:33.856Z,3.92
2023-03-18T16:49:37.262Z,4.63
2023-03-18T16:55:39.029Z,5.18
2023-03-18T17:01:43.658Z,4.95
2023-03-18T17:07:45.906Z,5.18
2023-03-18T17:13:48.728Z,11.85
2023-03-18T17:19:50.512Z,11.63
2023-03-18T17:26:00.225Z,5.45
2023-03-18T17:32:02.607Z,19.48
2023-03-18T17:38:04.524Z,13.27
2023-03-18T17:44:28.354Z,5.45
2023-03-18T17:50:31.450Z,7.47
2023-03-18T17:56:35.271Z,3.53
2023-03-18T18:02:40.211Z,4.32
2023-03-18T18:08:41.957Z,3.22
2023-03-18T18:14:44.316Z,11.82
2023-03-18T18:20:47.898Z,11.13
2023-03-18T18:26:50.700Z,6.50
2023-03-18T18:32:52.478Z,7.68
2023-03-18T18:38:57.329Z,6.07
2023-03-18T18:45:00.309Z,8.70
2023-03-18T18:51:04.244Z,6.18
2023-03-18T18:57:10.408Z,15.82
2023-03-18T19:03:17.761Z,11.32
2023-03-18T19:09:23.669Z,8.50
2023-03-18T19:15:26.266Z,12.48
2023-03-18T19:21:28.069Z,12.27
2023-03-18T19:27:32.360Z,6.97
2023-03-18T19:33:34.125Z,13.15
2023-03-18T19:39:36.487Z,13.13
2023-03-18T19:45:38.305Z,16.00
2023-03-18T19:51:40.145Z,13.77
2023-03-18T19:57:48.106Z,13.45
2023-03-18T20:03:55.479Z,9.90
2023-03-18T20:10:00.249Z,11.13
2023-03-18T20:16:02.116Z,9.10
2023-03-18T20:22:04.061Z,9.55
2023-03-18T20:28:11.732Z,10.57
2023-03-18T20:34:14.614Z,8.75
2023-03-18T20:40:28.560Z,10.70
2023-03-18T20:46:31.372Z,9.77
2023-03-18T20:52:33.929Z,11.63
2023-03-18T20:58:36.894Z,11.38
2023-03-18T21:04:39.683Z,8.90
2023-03-18T21:10:42.657Z,10.63
2023-03-18T21:16:45.207Z,9.57
2023-03-18T21:22:48.506Z,8.30
2023-03-18T21:28:53.072Z,6.82
2023-03-18T21:34:55.840Z,9.77
2023-03-18T21:41:02.110Z,10.63
2023-03-18T21:47:03.956Z,6.05
2023-03-18T21:53:07.081Z,8.98
2023-03-18T21:59:08.870Z,12.57
2023-03-18T22:05:14.536Z,8.25
2023-03-18T22:11:18.699Z,9.75
2023-03-18T22:17:29.511Z,12.45
2023-03-18T22:23:32.224Z,9.23
2023-03-18T22:29:33.980Z,9.70
2023-03-18T22:35:36.181Z,14.52
2023-03-18T22:41:38.225Z,18.63
2023-03-18T22:47:40.104Z,13.00
2023-03-18T22:53:44.570Z,14.90
2023-03-18T22:59:46.478Z,12.10
2023-03-18T23:05:50.472Z,12.10
2023-03-18T23:11:52.297Z,13.70
2023-03-18T23:17:54.026Z,9.32
2023-03-18T23:23:56.888Z,10.68
2023-03-18T23:29:58.659Z,13.93
2023-03-18T23:36:00.555Z,10.70
2023-03-18T23:42:02.398Z,11.13
2023-03-18T23:48:04.663Z,9.55
2023-03-18T23:54:08.149Z,14.32
